Flight Track Log - Related Links

Times and Time Zones

All times are in EST time to prevent confusion due to time zone crossing. See the SWA3725 flight status page for this flight to view local times or setup timezone preferences in your user account.

Time Position Orientation Groundspeed Altitude Reporting Facility
EST Latitude Longitude Course Direction KTS MPH feet Rate Location/Type
Wed 04:01:09 PM 42.9667 -71.4500 North 152 175 2,100  Level KA90
Wed 04:02:14 PM 43.0214 -71.4461 North 224 258 5,300 3,024 Climbing Boston Center
Wed 04:03:14 PM 43.0308 -71.3436 83° East 288 331 8,400 3,100 Climbing Boston Center
Wed 04:04:14 PM 43.0464 -71.2269 80° East 306 352 11,500 3,050 Climbing Boston Center
Wed 04:05:14 PM 43.0617 -71.1017 80° East 321 369 14,500 2,800 Climbing Boston Center
Wed 04:06:14 PM 43.0144 -70.9975 122° Southeast 324 373 17,100 1,850 Climbing Boston Center
Wed 04:07:14 PM 42.8933 -70.9719 171° South 329 379 18,200 1,750 Climbing Boston Center
Wed 04:08:14 PM 42.7767 -70.9778 182° South 382 440 20,600 2,300 Climbing Boston Center
Wed 04:09:14 PM 42.6689 -71.0394 203° Southwest 394 453 22,800 2,200 Climbing Boston Center
Wed 04:10:14 PM 42.5531 -71.0958 200° South 419 482 25,000 1,950 Climbing Boston Center
Wed 04:11:14 PM 42.4792 -71.2128 229° Southwest 413 475 26,700 2,400 Climbing Boston Center
Wed 04:12:14 PM 42.4181 -71.3378 237° Southwest 401 461 29,800 3,550 Climbing Boston Center
Wed 04:13:14 PM 42.3669 -71.4481 238° Southwest 385 443 33,800 3,000 Climbing Boston Center
Wed 04:14:14 PM 42.3239 -71.5417 238° Southwest 347 399 35,800 1,300 Climbing Boston Center
Wed 04:15:14 PM 42.2725 -71.6319 232° Southwest 320 368 36,400 700 Climbing Boston Center
Wed 04:16:14 PM 42.2231 -71.7336 237° Southwest 313 360 37,200 650 Climbing Boston Center
Wed 04:17:14 PM 42.1717 -71.8350 236° Southwest 313 360 37,700 400 Climbing Boston Center
Wed 04:18:14 PM 42.1200 -71.9364 236° Southwest 326 375 38,000 150 Climbing Boston Center
Wed 04:19:14 PM 42.0683 -72.0431 237° Southwest 331 381 38,000  Level Boston Center
Wed 04:20:14 PM 42.0144 -72.1467 235° Southwest 336 387 38,000  Level Boston Center
Wed 04:21:14 PM 41.9647 -72.2503 237° Southwest 336 387 38,000  Level Boston Center
Wed 04:22:14 PM 41.9128 -72.3536 236° Southwest 336 387 38,000  Level Boston Center
Wed 04:23:14 PM 41.8689 -72.4400 236° Southwest 336 387 38,000  Level Boston Center
Wed 04:24:14 PM 41.8169 -72.5431 236° Southwest 331 381 38,000  Level Boston Center
Wed 04:25:14 PM 41.7667 -72.6406 235° Southwest 331 381 38,000  Level Boston Center
Wed 04:26:14 PM 41.7164 -72.7406 236° Southwest 326 375 38,000  Level Boston Center
Wed 04:27:14 PM 41.6661 -72.8403 236° Southwest 326 375 38,000  Level Boston Center
Wed 04:28:14 PM 41.6158 -72.9344 234° Southwest 326 375 38,000  Level Boston Center
Wed 04:29:14 PM 41.5653 -73.0339 236° Southwest 326 375 38,000  Level Boston Center
Wed 04:31:09 PM 41.4800 -73.2108 237° Southwest 323 372 38,000  Level New York Center
Wed 04:32:07 PM 41.4303 -73.3058 235° Southwest 314 361 38,000  Level New York Center
Wed 04:33:08 PM 41.3781 -73.4006 234° Southwest 314 361 38,000  Level New York Center
Wed 04:34:07 PM 41.3300 -73.4981 237° Southwest 319 367 38,000  Level New York Center
Wed 04:35:07 PM 41.2819 -73.5956 237° Southwest 319 367 38,000  Level New York Center
Wed 04:36:09 PM 41.2317 -73.6928 236° Southwest 324 373 38,000  Level New York Center
Wed 04:37:08 PM 41.1833 -73.7900 237° Southwest 324 373 38,000  Level New York Center
Wed 04:39:07 PM 41.0681 -73.9800 231° Southwest 335 386 38,000  Level New York Center
Wed 04:40:09 PM 41.0092 -74.0708 229° Southwest 341 392 38,000  Level New York Center
Wed 04:41:07 PM 40.9483 -74.1639 229° Southwest 341 392 38,000 -50 Level New York Center
Wed 04:42:09 PM 40.8831 -74.2539 226° Southwest 347 399 37,900 -836 Descending New York Center
Wed 04:43:09 PM 40.8264 -74.3444 230° Southwest 342 394 36,300 -958 Descending New York Center
Wed 04:44:08 PM 40.7717 -74.4319 230° Southwest 331 381 36,000 -151 Descending New York Center
Wed 04:45:08 PM 40.7167 -74.5219 231° Southwest 326 375 36,000  Level New York Center
Wed 04:46:07 PM 40.6594 -74.6147 231° Southwest 326 375 36,000  Level New York Center
Wed 04:47:09 PM 40.6064 -74.7072 233° Southwest 326 375 36,000  Level New York Center
Wed 04:48:09 PM 40.5450 -74.7939 227° Southwest 326 375 36,000  Level New York Center
Wed 04:49:09 PM 40.4728 -74.8961 227° Southwest 339 390 36,000  Level New York Center
Wed 04:50:09 PM 40.4114 -74.9850 228° Southwest 339 390 36,000  Level New York Center
Wed 04:51:08 PM 40.3475 -75.0764 227° Southwest 344 396 36,000  Level New York Center
Wed 04:52:09 PM 40.2797 -75.1675 226° Southwest 339 390 36,000  Level New York Center
Wed 04:53:07 PM 40.2244 -75.2483 228° Southwest 339 390 36,000  Level New York Center
Wed 04:54:07 PM 40.1628 -75.3367 228° Southwest 334 384 36,000  Level New York Center
Wed 04:55:08 PM 40.0986 -75.4275 227° Southwest 334 384 36,000  Level New York Center
Wed 04:56:09 PM 40.0347 -75.5153 226° Southwest 334 384 36,000  Level New York Center
Wed 04:57:07 PM 39.9708 -75.6031 226° Southwest 334 384 36,000  Level New York Center
Wed 04:58:07 PM 39.9019 -75.7039 228° Southwest 339 390 36,000  Level New York Center
Wed 04:59:09 PM 39.8439 -75.7972 231° Southwest 344 396 36,000  Level New York Center
Wed 05:00:09 PM 39.7817 -75.8872 228° Southwest 344 396 36,000  Level New York Center
Wed 05:01:07 PM 39.7297 -75.9725 232° Southwest 344 396 36,000  Level New York Center
Wed 05:02:07 PM 39.6650 -76.0731 230° Southwest 344 396 36,000  Level New York Center
Wed 05:03:45 PM 39.5725 -76.2189 231° Southwest 331 381 36,000  Level Washington Center
Wed 05:04:43 PM 39.5156 -76.3125 232° Southwest 331 381 36,000  Level Washington Center
Wed 05:05:43 PM 39.4567 -76.4006 229° Southwest 331 381 36,000  Level Washington Center
Wed 05:06:45 PM 39.3978 -76.4911 230° Southwest 331 381 36,000 295 Level Washington Center
Wed 05:07:45 PM 39.3408 -76.5817 231° Southwest 331 381 36,600 763 Climbing Washington Center
Wed 05:08:43 PM 39.2817 -76.6747 231° Southwest 331 381 37,500 706 Climbing Washington Center
Wed 05:09:44 PM 39.2244 -76.7650 231° Southwest 331 381 38,000 246 Climbing Washington Center
Wed 05:10:45 PM 39.1653 -76.8553 230° Southwest 331 381 38,000  Level Washington Center
Wed 05:11:42 PM 39.1081 -76.9453 231° Southwest 331 381 38,000  Level Washington Center
Wed 05:12:43 PM 39.0486 -77.0350 230° Southwest 336 387 38,000  Level Washington Center
Wed 05:13:44 PM 38.9767 -77.1164 221° Southwest 336 387 38,000  Level Washington Center
Wed 05:14:43 PM 38.9069 -77.1922 220° Southwest 336 387 38,000  Level Washington Center
Wed 05:15:43 PM 38.8372 -77.2653 219° Southwest 336 387 38,000  Level Washington Center
Wed 05:16:44 PM 38.7694 -77.3383 220° Southwest 336 387 38,000  Level Washington Center
Wed 05:17:44 PM 38.7017 -77.4111 220° Southwest 330 380 38,000  Level Washington Center
Wed 05:18:44 PM 38.6336 -77.4867 221° Southwest 330 380 38,000  Level Washington Center
Wed 05:19:45 PM 38.5658 -77.5592 220° Southwest 330 380 38,000  Level Washington Center
Wed 05:20:43 PM 38.4936 -77.6369 220° Southwest 335 386 38,000  Level Washington Center
Wed 05:21:44 PM 38.4256 -77.7119 221° Southwest 335 386 38,000  Level Washington Center
Wed 05:22:44 PM 38.3556 -77.7867 220° Southwest 335 386 38,000  Level Washington Center
Wed 05:23:44 PM 38.2872 -77.8614 221° Southwest 335 386 38,000  Level Washington Center
Wed 05:24:45 PM 38.2172 -77.9358 220° Southwest 335 386 38,000  Level Washington Center
Wed 05:25:43 PM 38.1489 -78.0078 220° Southwest 330 380 38,000  Level Washington Center
Wed 05:26:43 PM 38.0808 -78.0794 220° Southwest 330 380 38,000  Level Washington Center
Wed 05:27:44 PM 38.0144 -78.1536 221° Southwest 330 380 38,000  Level Washington Center
Wed 05:28:44 PM 37.9464 -78.2225 219° Southwest 325 374 38,000  Level Washington Center
Wed 05:29:45 PM 37.8758 -78.2908 217° Southwest 320 368 38,000  Level Washington Center
Wed 05:30:45 PM 37.8036 -78.3567 216° Southwest 320 368 38,000  Level Washington Center
Wed 05:31:43 PM 37.7394 -78.4175 217° Southwest 326 375 38,000  Level Washington Center
Wed 05:32:43 PM 37.6669 -78.4881 218° Southwest 326 375 38,000  Level Washington Center
Wed 05:33:45 PM 37.5903 -78.5561 215° Southwest 331 381 38,000  Level Washington Center
Wed 05:34:45 PM 37.5153 -78.6292 218° Southwest 336 387 38,000  Level Washington Center
Wed 05:35:45 PM 37.4386 -78.6967 215° Southwest 341 392 38,000  Level Washington Center
Wed 05:36:43 PM 37.3550 -78.7767 217° Southwest 346 398 38,000  Level Washington Center
Wed 05:37:44 PM 37.2781 -78.8467 216° Southwest 346 398 38,000  Level Washington Center
Wed 05:38:45 PM 37.2011 -78.9164 216° Southwest 346 398 38,000  Level Washington Center
Wed 05:39:45 PM 37.1261 -78.9886 218° Southwest 346 398 38,000  Level Washington Center
Wed 05:40:43 PM 37.0467 -79.0608 216° Southwest 346 398 38,000  Level Washington Center
Wed 05:41:43 PM 36.9717 -79.1328 217° Southwest 346 398 38,000  Level Washington Center
Wed 05:42:43 PM 36.9011 -79.1944 215° Southwest 351 404 38,000  Level Washington Center
Wed 05:43:45 PM 36.8258 -79.2661 217° Southwest 351 404 38,000  Level Washington Center
Wed 05:45:26 PM 36.6836 -79.3922 215° Southwest 350 403 38,000  Level Atlanta Center
Wed 05:46:26 PM 36.6169 -79.4531 216° Southwest 350 403 38,000  Level Atlanta Center
Wed 05:47:26 PM 36.5425 -79.5219 217° Southwest 350 403 38,000  Level Atlanta Center
Wed 05:48:26 PM 36.4658 -79.5933 217° Southwest 350 403 38,000  Level Atlanta Center
Wed 05:49:26 PM 36.3892 -79.6619 216° Southwest 350 403 38,000  Level Atlanta Center
Wed 05:50:26 PM 36.3122 -79.7308 216° Southwest 350 403 38,000  Level Atlanta Center
Wed 05:51:26 PM 36.2272 -79.8072 216° Southwest 350 403 38,000  Level Atlanta Center
Wed 05:52:26 PM 36.1483 -79.8808 217° Southwest 350 403 38,000  Level Atlanta Center
Wed 05:53:26 PM 36.0717 -79.9517 217° Southwest 350 403 38,000  Level Atlanta Center
Wed 05:54:26 PM 35.9772 -79.9975 201° Southwest 350 403 38,000  Level Atlanta Center
Wed 05:55:26 PM 35.8781 -80.0306 195° South 362 417 38,000  Level Atlanta Center
Wed 05:56:26 PM 35.7831 -80.0583 193° South 377 434 38,000  Level Atlanta Center
Wed 05:57:26 PM 35.6800 -80.0939 196° South 383 441 38,000  Level Atlanta Center
Wed 05:58:26 PM 35.5789 -80.1294 196° South 383 441 38,000  Level Atlanta Center
Wed 05:59:26 PM 35.4775 -80.1622 195° South 383 441 38,000  Level Atlanta Center
Wed 06:00:26 PM 35.3764 -80.1950 195° South 383 441 38,000  Level Atlanta Center
Wed 06:01:26 PM 35.2731 -80.2281 195° South 378 435 38,000  Level Atlanta Center
Wed 06:03:36 PM 35.0489 -80.3011 195° South 395 455 38,000  Level Jacksonville Center
Wed 06:04:36 PM 34.9494 -80.3322 194° South 389 448 38,000  Level Jacksonville Center
Wed 06:05:36 PM 34.8375 -80.3683 195° South 384 442 38,000  Level Jacksonville Center
Wed 06:06:36 PM 34.7422 -80.3939 192° South 371 427 38,000  Level Jacksonville Center
Wed 06:07:36 PM 34.6406 -80.4272 195° South 371 427 38,000  Level Jacksonville Center
Wed 06:08:36 PM 34.5389 -80.4603 195° South 376 433 38,000  Level Jacksonville Center
Wed 06:09:36 PM 34.4353 -80.4933 195° South 376 433 38,000  Level Jacksonville Center
Wed 06:10:36 PM 34.3339 -80.5289 196° South 376 433 38,000  Level Jacksonville Center
Wed 06:11:36 PM 34.2300 -80.5594 194° South 376 433 38,000  Level Jacksonville Center
Wed 06:12:36 PM 34.1306 -80.5894 194° South 376 433 38,000  Level Jacksonville Center
Wed 06:13:36 PM 34.0267 -80.6225 195° South 376 433 38,000  Level Jacksonville Center
Wed 06:14:36 PM 33.9231 -80.6575 196° South 376 433 38,000  Level Jacksonville Center
Wed 06:15:36 PM 33.8233 -80.6878 194° South 376 433 38,000  Level Jacksonville Center
Wed 06:16:36 PM 33.7197 -80.7178 194° South 376 433 38,000  Level Jacksonville Center
Wed 06:17:36 PM 33.6158 -80.7528 196° South 376 433 38,000  Level Jacksonville Center
Wed 06:18:35 PM 33.5142 -80.7850 195° South 376 433 38,000  Level Jacksonville Center
Wed 06:19:35 PM 33.4125 -80.8197 196° South 376 433 38,000  Level Jacksonville Center
Wed 06:20:35 PM 33.3086 -80.8494 193° South 376 433 38,000  Level Jacksonville Center
Wed 06:21:36 PM 33.2028 -80.8817 194° South 381 438 38,000  Level Jacksonville Center
Wed 06:22:36 PM 33.0989 -80.9139 195° South 381 438 38,000  Level Jacksonville Center
Wed 06:23:35 PM 32.9950 -80.9458 194° South 381 438 38,000  Level Jacksonville Center
Wed 06:24:36 PM 32.8911 -80.9778 194° South 386 444 38,000  Level Jacksonville Center
Wed 06:25:36 PM 32.7806 -80.9925 186° South 392 451 38,000  Level Jacksonville Center
Wed 06:26:35 PM 32.6681 -80.9947 181° South 404 465 38,000  Level Jacksonville Center
Wed 06:27:35 PM 32.5533 -80.9997 182° South 404 465 38,000  Level Jacksonville Center
Wed 06:28:35 PM 32.4425 -81.0019 181° South 404 465 38,000  Level Jacksonville Center
Wed 06:29:35 PM 32.3383 -81.0067 182° South 393 452 38,000  Level Jacksonville Center
Wed 06:30:36 PM 32.2381 -81.0111 182° South 400 460 38,000  Level Jacksonville Center
Wed 06:31:36 PM 32.1128 -81.0089 179° South 414 476 38,000  Level Jacksonville Center
Wed 06:32:35 PM 32.0003 -81.0161 183° South 414 476 38,000  Level Jacksonville Center
Wed 06:33:36 PM 31.8981 -81.0206 182° South 408 470 38,000  Level Jacksonville Center
Wed 06:34:35 PM 31.7769 -81.0256 182° South 402 463 38,000  Level Jacksonville Center
Wed 06:35:35 PM 31.6767 -81.0275 181° South 399 459 38,000 -298 Level Jacksonville Center
Wed 06:36:36 PM 31.5517 -81.0325 182° South 399 459 37,400 -744 Descending Jacksonville Center
Wed 06:37:36 PM 31.4408 -81.0347 181° South 402 463 36,500 -950 Descending Jacksonville Center
Wed 06:38:36 PM 31.3219 -81.0394 182° South 411 473 35,500 -1,008 Descending Jacksonville Center
Wed 06:39:35 PM 31.2094 -81.0442 182° South 416 479 34,500 -1,250 Descending Jacksonville Center
Wed 06:40:36 PM 31.0967 -81.0464 181° South 406 467 33,000 -1,240 Descending Jacksonville Center
Wed 06:41:36 PM 30.9819 -81.0533 183° South 406 467 32,000 -504 Descending Jacksonville Center
Wed 06:42:35 PM 30.8650 -81.0581 182° South 412 474 32,000  Level Jacksonville Center
Wed 06:43:36 PM 30.7481 -81.0603 181° South 417 480 32,000  Level Jacksonville Center
Wed 06:44:35 PM 30.6292 -81.0603 180° South 423 487 32,000  Level Jacksonville Center
Wed 06:45:36 PM 30.5122 -81.0650 182° South 423 487 32,000  Level Jacksonville Center
Wed 06:46:36 PM 30.3956 -81.0669 181° South 418 481 32,000  Level Jacksonville Center
Wed 06:47:36 PM 30.2764 -81.0694 181° South 423 487 32,000  Level Jacksonville Center
Wed 06:48:35 PM 30.1617 -81.0717 181° South 423 487 32,000 -200 Level Jacksonville Center
Wed 06:49:36 PM 30.0447 -81.0736 181° South 423 487 31,600 -744 Descending Jacksonville Center
Wed 06:50:36 PM 29.9258 -81.0761 181° South 423 487 30,500 -1,800 Descending Jacksonville Center
Wed 06:51:36 PM 29.8089 -81.0806 182° South 423 487 28,000 -2,521 Descending Jacksonville Center
Wed 06:52:35 PM 29.6983 -81.0825 181° South 413 475 25,500 -2,400 Descending Jacksonville Center
Wed 06:53:36 PM 29.5897 -81.0822 180° South 408 470 23,200 -2,281 Descending Jacksonville Center
Wed 06:54:36 PM 29.4833 -81.0867 182° South 396 456 20,900 -2,218 Descending Jacksonville Center
Wed 06:55:35 PM 29.3833 -81.0883 181° South 378 435 18,800 -2,118 Descending Jacksonville Center
Wed 06:56:35 PM 29.2850 -81.0878 180° South 367 422 16,700 -2,083 Descending Jacksonville Center
Wed 06:57:36 PM 29.1911 -81.0897 181° South 351 404 14,600 -2,083 Descending Jacksonville Center
Wed 06:58:36 PM 29.0994 -81.0889 180° South 345 397 12,500 -1,311 Descending Jacksonville Center
Wed 06:59:35 PM 29.0139 -81.0928 182° South 333 383 12,000 -850 Descending Jacksonville Center
Wed 07:00:36 PM 28.9322 -81.0778 171° South 307 353 10,800 -1,526 Descending Jacksonville Center
Wed 07:01:29 PM 28.8667 -81.0667 172° South 285 328 9,100 -1,714 Descending Orlando TRACON
Wed 07:02:28 PM 28.7833 -81.0500 170° South 290 334 7,600 -1,513 Descending Orlando TRACON
Wed 07:03:28 PM 28.7500 -81.1333 245° Southwest 273 314 6,100 -1,450 Descending Orlando TRACON
Wed 07:04:28 PM 28.7000 -81.2000 229° Southwest 257 296 4,700 -1,050 Descending Orlando TRACON
Wed 07:05:28 PM 28.6500 -81.2500 221° Southwest 242 278 4,000 -545 Descending Orlando TRACON
Wed 07:06:29 PM 28.6000 -81.2833 210° Southwest 214 246 3,600 -496 Descending Orlando TRACON
Wed 07:07:29 PM 28.5500 -81.2833 180° South 154 177 3,000 -1,100 Descending Orlando TRACON
Wed 07:08:29 PM 28.5167 -81.2833 180° South 136 157 1,400 -1,200 Descending Orlando TRACON
Wed 07:09:29 PM 28.4667 -81.2833 180° South 145 167 600 -800 Descending Orlando TRACON
Wed 07:11:00 PM 28.4294 -81.3090 180° South  Level Estimated
Wed 07:18:00 PM 28.4294 -81.3090 336° Northwest  Level Estimated
Wed 07:19:00 PM 28.4294 -81.3090 336° Northwest  Level Estimated
Wed 07:20:00 PM 28.4294 -81.3090 336° Northwest  Level Estimated
Wed 07:21:00 PM 28.4294 -81.3090 336° Northwest  Level Estimated

Login

Don't have an account? Register now (free) for customized features, flight alerts, and more!